Livermore, California
Current Conditions -  °F | °C
As of 8:53 PM on Friday 24 Oct 2014 (Local Time) from KLVK Reporting Station
Clear Clear  
Wind Chill: 63°   Ceiling: Unl
Heat Index: 63°   Visibility: 10mi
Dew Point: 54°   Wind: 10mph
Humidity: 72%   Direction: 240°WSW
Pressure: 29.9"   Gusts: NA
Location:  37.68°N, 121.75°W
Report Text: KLVK 250353Z 24009KT 10SM CLR 17/12 A2990 RMK AO2 SLP124 T01720122 $
Loading
Personal Weather Stations






























Interactive Weather Map
Tropical Storm Tracking
New forecast layout! Learn more

10-Day Weather Forecast

Advertisements
Track Severe Weather on mobile